Archival Weather

Norman Y Mineta San Jose Intl

San Jose, California (KSJC)

Report from: Saturday, February 17, 2024 1:53 PM PST
Current time: Friday, June 21, 2024 1:37 AM PDT

Current weather – Weather history – Daily summaries
Weather forecast

Temperature15.0°C (59.0°F)
Dew point8.9°C (48.0°F)
Winds 15 kts (7.7 m/s, 17.3 mph) Southeast (130°)
Peak wind 29 kts (14.9 m/s, 33.4 mph) South-Southeast (160°) at 20:54
Visibility10 mi. (16.1 km)
Clouds Few clouds 900 ft. (274 m)
Scattered clouds 3,600 ft. (1,097 m)
Ceiling: Broken clouds 9,000 ft. (2,743 m)
Altimeter29.88 in.Hg (1012 mB)
Relative humidity67 %
Density altitude208 ft. (64 m)
Sea-level pressure101.2 kPa (1012 mB, 29.88 in.Hg)
Remarks Automated weather observing station with precipitation discriminator
Flight conditions Visual Meteorological Conditions
Raw dataKSJC 172153Z 13015KT 10SM FEW009 SCT036 BKN090 15/09 A2988 RMK AO2 PK WND 16029/2054 SLP119 T01500089
An error has occurred. This application may no longer respond until reloaded. Reload 🗙